createdAt,value
2023-03-18T00:04:54.776Z,49.97
2023-03-18T00:09:56.771Z,50.14
2023-03-18T00:14:58.668Z,50.13
2023-03-18T00:20:06.164Z,50.11
2023-03-18T00:25:24.872Z,49.43
2023-03-18T00:30:52.101Z,50.84
2023-03-18T00:36:00.222Z,51.02
2023-03-18T00:41:12.721Z,50.84
2023-03-18T00:46:18.112Z,50.69
2023-03-18T00:51:24.317Z,50.23
2023-03-18T00:56:28.164Z,51.13
2023-03-18T01:01:33.100Z,51.51
2023-03-18T01:06:37.682Z,50.79
2023-03-18T01:11:40.660Z,51.39
2023-03-18T01:16:43.559Z,51.42
2023-03-18T01:21:47.485Z,50.90
2023-03-18T01:26:49.887Z,51.24
2023-03-18T01:31:58.074Z,50.99
2023-03-18T01:37:07.283Z,51.03
2023-03-18T01:42:12.850Z,51.36
2023-03-18T01:47:18.936Z,51.02
2023-03-18T01:52:31.483Z,50.22
2023-03-18T01:57:36.088Z,51.11
2023-03-18T02:02:40.545Z,51.23
2023-03-18T02:07:44.487Z,51.29
2023-03-18T02:12:52.139Z,50.71
2023-03-18T02:18:10.004Z,50.87
2023-03-18T02:23:21.778Z,51.61
2023-03-18T02:28:30.161Z,51.17
2023-03-18T02:33:44.228Z,50.94
2023-03-18T02:38:47.853Z,50.32
2023-03-18T02:43:51.587Z,50.54
2023-03-18T02:48:54.245Z,50.66
2023-03-18T02:54:10.398Z,50.62
2023-03-18T02:59:13.467Z,50.52
2023-03-18T03:04:17.462Z,50.36
2023-03-18T03:09:20.369Z,50.69
2023-03-18T03:14:22.568Z,50.62
2023-03-18T03:19:24.671Z,51.27
2023-03-18T03:24:26.802Z,50.24
2023-03-18T03:29:29.559Z,51.19
2023-03-18T03:34:31.728Z,51.06
2023-03-18T03:39:34.169Z,50.80
2023-03-18T03:44:36.719Z,50.45
2023-03-18T03:49:39.107Z,50.63
2023-03-18T03:54:45.374Z,50.74
2023-03-18T03:59:47.939Z,51.58
2023-03-18T04:04:50.639Z,51.22
2023-03-18T04:09:52.730Z,51.06
2023-03-18T04:14:54.818Z,51.39
2023-03-18T04:19:56.916Z,51.93
2023-03-18T04:25:00.592Z,51.66
2023-03-18T04:30:08.551Z,52.23
2023-03-18T04:35:11.442Z,51.80
2023-03-18T04:40:14.967Z,52.07
2023-03-18T04:45:18.027Z,52.69
2023-03-18T04:50:20.868Z,51.76
2023-03-18T04:55:34.190Z,52.54
2023-03-18T05:00:38.819Z,52.47
2023-03-18T05:05:49.627Z,52.24
2023-03-18T05:10:58.570Z,51.71
2023-03-18T05:16:00.563Z,51.72
2023-03-18T05:21:05.484Z,51.60
2023-03-18T05:26:10.087Z,50.41
2023-03-18T05:31:12.349Z,49.41
2023-03-18T05:36:14.917Z,50.08
2023-03-18T05:41:17.990Z,48.99
2023-03-18T05:46:20.036Z,48.44
2023-03-18T05:51:22.037Z,48.29
2023-03-18T05:56:24.954Z,45.63
2023-03-18T06:01:27.024Z,45.17
2023-03-18T06:06:30.992Z,45.33
2023-03-18T06:11:34.217Z,46.00
2023-03-18T06:16:38.397Z,45.29
2023-03-18T06:21:49.273Z,43.50
2023-03-18T06:26:52.080Z,43.53
2023-03-18T06:31:54.129Z,43.64
2023-03-18T06:36:57.281Z,43.50
2023-03-18T06:42:05.196Z,43.40
2023-03-18T06:47:07.256Z,43.46
2023-03-18T06:52:14.416Z,43.59
2023-03-18T06:57:20.679Z,42.13
2023-03-18T07:02:23.877Z,41.73
2023-03-18T07:07:28.300Z,41.90
2023-03-18T07:12:31.644Z,42.15
2023-03-18T07:17:43.779Z,40.59
2023-03-18T07:22:47.331Z,40.96
2023-03-18T07:27:53.527Z,40.00
2023-03-18T07:32:56.902Z,39.70
2023-03-18T07:38:01.904Z,38.47
2023-03-18T07:43:09.610Z,38.32
2023-03-18T07:48:14.656Z,37.49
2023-03-18T07:53:23.712Z,36.80
2023-03-18T07:58:26.867Z,36.59
2023-03-18T08:03:29.814Z,35.97
2023-03-18T08:08:34.132Z,36.19
2023-03-18T08:13:36.669Z,35.66
2023-03-18T08:18:38.633Z,35.05
2023-03-18T08:23:44.550Z,34.84
2023-03-18T08:28:46.811Z,35.29
2023-03-18T08:33:49.767Z,33.91
2023-03-18T08:38:52.216Z,33.18
2023-03-18T08:43:55.673Z,33.57
2023-03-18T08:48:57.597Z,32.59
2023-03-18T08:54:00.985Z,32.33
2023-03-18T08:59:03.206Z,32.96
2023-03-18T09:04:06.962Z,32.49
2023-03-18T09:09:15.751Z,33.63
2023-03-18T09:14:18.739Z,32.81
2023-03-18T09:19:21.073Z,31.97
2023-03-18T09:24:23.224Z,31.24
2023-03-18T09:29:28.807Z,31.58
2023-03-18T09:34:33.999Z,32.15
2023-03-18T09:39:36.125Z,31.72
2023-03-18T09:44:39.266Z,30.94
2023-03-18T09:50:05.762Z,31.47
2023-03-18T09:55:30.549Z,30.61
2023-03-18T10:00:36.676Z,31.36
2023-03-18T10:05:48.824Z,31.68
2023-03-18T10:10:53.367Z,31.06
2023-03-18T10:16:02.164Z,30.99
2023-03-18T10:21:18.337Z,30.26
2023-03-18T10:26:25.264Z,30.43
2023-03-18T10:32:03.643Z,29.82
2023-03-18T10:37:32.013Z,30.95
2023-03-18T10:42:38.298Z,29.93
2023-03-18T10:47:44.808Z,29.69
2023-03-18T10:52:51.972Z,28.59
2023-03-18T10:57:55.374Z,29.34
2023-03-18T11:02:58.875Z,30.08
2023-03-18T11:08:29.138Z,29.24
2023-03-18T11:13:31.211Z,29.65
2023-03-18T11:18:35.025Z,29.32
2023-03-18T11:23:50.274Z,29.67
2023-03-18T11:29:05.085Z,29.88
2023-03-18T11:34:09.147Z,29.51
2023-03-18T11:39:15.355Z,28.95
2023-03-18T11:44:20.128Z,29.14
2023-03-18T11:49:25.572Z,29.90
2023-03-18T11:54:54.047Z,29.63
2023-03-18T12:00:10.710Z,29.38
2023-03-18T12:05:26.772Z,28.84
2023-03-18T12:10:41.737Z,30.09
2023-03-18T12:15:55.024Z,29.80
2023-03-18T12:21:13.893Z,30.29
2023-03-18T12:26:37.686Z,28.97
2023-03-18T12:32:00.169Z,29.19
2023-03-18T12:37:10.522Z,29.38
2023-03-18T12:42:16.782Z,30.41
2023-03-18T12:47:37.366Z,30.73
2023-03-18T12:52:47.539Z,30.54
2023-03-18T12:57:56.840Z,30.28
2023-03-18T13:03:07.458Z,29.58
2023-03-18T13:08:48.653Z,31.38
2023-03-18T13:13:56.598Z,31.10
2023-03-18T13:18:59.813Z,30.97
2023-03-18T13:24:20.199Z,31.59
2023-03-18T13:29:28.152Z,31.70
2023-03-18T13:34:55.295Z,31.15
2023-03-18T13:40:21.001Z,31.20
2023-03-18T13:45:40.458Z,30.71
2023-03-18T13:50:46.058Z,31.36
2023-03-18T13:55:57.965Z,31.13
2023-03-18T14:01:00.624Z,31.58
2023-03-18T14:06:05.566Z,31.74
2023-03-18T14:11:37.634Z,30.81
2023-03-18T14:16:51.754Z,31.47
2023-03-18T14:21:55.265Z,30.74
2023-03-18T14:27:00.199Z,30.29
2023-03-18T14:32:09.320Z,30.92
2023-03-18T14:37:28.156Z,30.92
2023-03-18T14:42:35.973Z,31.49
2023-03-18T14:47:49.001Z,31.72
2023-03-18T14:53:24.853Z,32.56
2023-03-18T14:58:28.405Z,32.43
2023-03-18T15:03:32.716Z,33.38
2023-03-18T15:08:48.214Z,33.00
2023-03-18T15:13:54.840Z,33.02
2023-03-18T15:18:59.812Z,33.36
2023-03-18T15:24:06.177Z,34.51
2023-03-18T15:29:33.522Z,34.19
2023-03-18T15:34:38.479Z,35.25
2023-03-18T15:39:41.155Z,34.31
2023-03-18T15:44:46.303Z,33.45
2023-03-18T15:49:55.915Z,34.45
2023-03-18T15:54:59.049Z,35.05
2023-03-18T16:00:01.474Z,34.75
2023-03-18T16:05:26.247Z,34.97
2023-03-18T16:10:32.905Z,35.16
2023-03-18T16:15:35.855Z,34.42
2023-03-18T16:20:37.983Z,34.63
2023-03-18T16:25:39.949Z,35.27
2023-03-18T16:30:42.042Z,35.32
2023-03-18T16:35:44.494Z,35.14
2023-03-18T16:40:46.998Z,35.78
2023-03-18T16:45:54.317Z,36.15
2023-03-18T16:50:57.879Z,36.00
2023-03-18T16:56:16.493Z,36.29
2023-03-18T17:01:19.729Z,36.87
2023-03-18T17:06:24.313Z,36.35
2023-03-18T17:11:27.607Z,36.88
2023-03-18T17:16:32.793Z,36.91
2023-03-18T17:21:35.464Z,36.75
2023-03-18T17:26:38.088Z,37.26
2023-03-18T17:31:40.480Z,37.07
2023-03-18T17:36:43.638Z,37.07
2023-03-18T17:41:46.117Z,37.96
2023-03-18T17:46:48.520Z,38.15
2023-03-18T17:52:01.015Z,38.31
2023-03-18T17:57:06.311Z,38.26
2023-03-18T18:02:19.119Z,38.50
2023-03-18T18:07:24.136Z,38.35
2023-03-18T18:12:26.969Z,38.75
2023-03-18T18:17:30.420Z,39.05
2023-03-18T18:22:33.346Z,39.19
2023-03-18T18:27:36.740Z,38.88
2023-03-18T18:32:40.090Z,39.59
2023-03-18T18:37:48.213Z,39.26
2023-03-18T18:42:51.813Z,40.07
2023-03-18T18:47:56.845Z,40.21
2023-03-18T18:53:01.281Z,40.00
2023-03-18T18:58:07.233Z,40.51
2023-03-18T19:03:15.495Z,40.28
2023-03-18T19:08:29.770Z,40.80
2023-03-18T19:13:37.083Z,40.81
2023-03-18T19:18:43.810Z,41.33
2023-03-18T19:23:48.241Z,41.01
2023-03-18T19:28:59.423Z,40.79
2023-03-18T19:34:07.092Z,40.88
2023-03-18T19:39:15.336Z,41.02
2023-03-18T19:44:27.359Z,41.51
2023-03-18T19:49:41.388Z,41.11
2023-03-18T19:54:51.534Z,40.29
2023-03-18T19:59:58.295Z,40.65
2023-03-18T20:05:17.273Z,40.29
2023-03-18T20:10:22.523Z,40.66
2023-03-18T20:15:30.216Z,40.87
2023-03-18T20:20:33.968Z,41.43
2023-03-18T20:25:52.957Z,41.31
2023-03-18T20:31:00.225Z,41.33
2023-03-18T20:36:07.043Z,40.99
2023-03-18T20:41:18.283Z,41.23
2023-03-18T20:46:25.340Z,40.84
2023-03-18T20:51:37.415Z,41.51
2023-03-18T20:56:40.437Z,41.45
2023-03-18T21:01:43.706Z,41.46
2023-03-18T21:06:47.196Z,42.42
2023-03-18T21:11:49.866Z,42.07
2023-03-18T21:16:53.461Z,42.56
2023-03-18T21:21:57.240Z,43.63
2023-03-18T21:27:05.278Z,43.23
2023-03-18T21:32:22.280Z,44.16
2023-03-18T21:37:30.857Z,44.30
2023-03-18T21:42:34.681Z,43.95
2023-03-18T21:47:37.273Z,44.42
2023-03-18T21:52:40.732Z,44.54
2023-03-18T21:57:43.776Z,44.88
2023-03-18T22:02:48.880Z,44.29
2023-03-18T22:07:52.177Z,45.08
2023-03-18T22:12:54.505Z,45.52
2023-03-18T22:18:02.728Z,45.77
2023-03-18T22:23:31.896Z,46.44
2023-03-18T22:28:34.947Z,46.58
2023-03-18T22:33:37.051Z,46.61
2023-03-18T22:38:39.046Z,46.55
2023-03-18T22:43:41.075Z,47.37
2023-03-18T22:48:45.099Z,46.86
2023-03-18T22:53:49.532Z,45.97
2023-03-18T22:58:54.855Z,47.24
2023-03-18T23:03:58.615Z,46.97
2023-03-18T23:09:00.587Z,47.72
2023-03-18T23:14:04.249Z,46.99
2023-03-18T23:19:21.423Z,47.63
2023-03-18T23:24:25.477Z,47.96
2023-03-18T23:29:31.879Z,47.56
2023-03-18T23:34:33.849Z,48.10
2023-03-18T23:39:43.013Z,48.34
2023-03-18T23:44:47.941Z,48.93
2023-03-18T23:49:49.901Z,48.07
2023-03-18T23:54:53.869Z,49.10
2023-03-18T23:59:57.660Z,49.45
